createdAt,value
2023-03-23T00:22:13.247Z,13.8
2023-03-23T00:52:35.227Z,13.75
2023-03-23T01:22:53.775Z,13.85
2023-03-23T01:53:10.687Z,13.8
2023-03-23T02:23:28.284Z,13.95
2023-03-23T02:53:46.152Z,13.45
2023-03-23T03:24:02.608Z,13.3
2023-03-23T03:54:19.900Z,12.95
2023-03-23T04:24:55.977Z,13.25
2023-03-23T04:55:07.263Z,13.45
2023-03-23T05:25:25.150Z,13.2
2023-03-23T05:55:43.465Z,13.05
2023-03-23T06:26:03.971Z,12.9
2023-03-23T06:56:22.982Z,13.05
2023-03-23T07:26:42.432Z,13.25
2023-03-23T07:57:01.630Z,13.8
2023-03-23T08:27:21.926Z,13.9
2023-03-23T08:57:40.558Z,14.95
2023-03-23T09:28:04.756Z,16.95
2023-03-23T09:58:23.167Z,15.55
2023-03-23T10:28:37.263Z,15.6
2023-03-23T10:58:54.327Z,15.25
2023-03-23T11:29:20.233Z,17.65
2023-03-23T11:59:32.428Z,15.95
2023-03-23T13:00:16.916Z,18.1
2023-03-23T13:30:34.162Z,16.85
2023-03-23T14:00:45.236Z,15.65
2023-03-23T14:31:02.783Z,15.6
2023-03-23T15:01:21.030Z,15.45
2023-03-23T15:31:39.597Z,15.7
2023-03-23T16:01:57.200Z,15.45
2023-03-23T16:32:13.419Z,14.65
2023-03-23T17:02:30.244Z,14.3
2023-03-23T17:32:47.174Z,14
2023-03-23T18:03:02.645Z,13.65
2023-03-23T18:33:20.424Z,13.35
2023-03-23T19:03:37.797Z,13.15
2023-03-23T19:33:56.096Z,13.3
2023-03-23T22:35:50.473Z,13.2
2023-03-23T23:06:09.949Z,13.15
2023-03-23T23:36:29.483Z,12.75
